Time;durP1;ratioP1;P1;durP2;ratioP2;P2;SDS_P1;SDS_P2;PMS_P1;PMS_P2;Temp;Humidity;BMP_temperature;BMP_pressure;BME280_temperature;BME280_humidity;BME280_pressure;Samples;Min_cycle;Max_cycle;Signal;HPM_P1;HPM_P2
2023/02/09 00:00:22;;;;;;;;;;;;;;;15.46;28.23;96989.44;10405964;28;1979;-52
2023/02/09 00:05:22;;;;;;;;;;;;;;;15.45;28.44;96993.06;10413575;28;1943;-52
2023/02/09 00:10:23;;;;;;;;;;;;;;;15.42;28.39;96993.44;10416458;28;1973;-51
2023/02/09 00:15:23;;;;;;;;;;;;;;;15.42;28.42;97001.28;10412227;28;2066;-54
2023/02/09 00:20:23;;;;;;;;;;;;;;;15.41;28.28;97000.47;10412722;28;2094;-49
2023/02/09 00:25:24;;;;;;;;;;;;;;;15.39;28.33;96996.50;10416769;28;1935;-49
2023/02/09 00:30:24;;;;;;;;;;;;;;;15.39;28.26;97005.09;10413965;28;1977;-50
2023/02/09 00:35:24;;;;;;;;;;;;;;;15.38;28.15;96997.50;10411697;28;1975;-51
2023/02/09 00:40:24;;;;;;;;;;;;;;;15.37;28.29;96993.28;10411642;28;2000;-53
2023/02/09 00:45:25;;;;;;;;;;;;;;;15.35;28.21;96984.88;10392702;28;1939;-54
2023/02/09 00:50:25;;;;;;;;;;;;;;;15.34;28.25;96980.63;10387118;28;2407;-50
2023/02/09 00:55:26;;;;;;;;;;;;;;;15.35;28.19;96977.03;10429551;28;2096;-50
2023/02/09 01:00:26;;;;;;;;;;;;;;;15.31;28.17;96974.00;10411417;28;1962;-47
2023/02/09 01:05:26;;;;;;;;;;;;;;;15.30;28.18;96980.25;10417678;28;2047;-50
2023/02/09 01:10:27;;;;;;;;;;;;;;;15.30;28.15;96979.47;10421224;28;1922;-54
2023/02/09 01:15:27;;;;;;;;;;;;;;;15.28;28.13;96984.09;10430653;28;1989;-48
2023/02/09 01:20:27;;;;;;;;;;;;;;;15.26;28.08;96973.84;10423644;28;2033;-52
2023/02/09 01:25:27;;;;;;;;;;;;;;;15.24;28.15;96975.88;10424678;28;2195;-52
2023/02/09 01:30:28;;;;;;;;;;;;;;;15.25;28.06;96976.69;10415138;28;2070;-51
2023/02/09 01:35:28;;;;;;;;;;;;;;;15.24;28.07;96975.06;10418074;28;2109;-47
2023/02/09 01:40:28;;;;;;;;;;;;;;;15.22;28.04;96971.88;10425973;28;1951;-51
2023/02/09 01:45:42;;;;;;;;;;;;;;;15.21;28.15;96968.44;10427797;28;2019;-52
2023/02/09 01:50:43;;;;;;;;;;;;;;;15.19;28.00;96956.59;10394675;28;2024;-52
2023/02/09 01:55:46;;;;;;;;;;;;;;;15.19;28.10;96961.81;10392922;28;1998;-48
2023/02/09 02:00:46;;;;;;;;;;;;;;;15.17;28.00;96953.41;10400433;28;1950;-54
2023/02/09 02:05:47;;;;;;;;;;;;;;;15.16;27.96;96952.63;10416235;28;2012;-52
2023/02/09 02:10:48;;;;;;;;;;;;;;;15.16;27.96;96950.00;10416627;28;2013;-54
2023/02/09 02:15:57;;;;;;;;;;;;;;;15.15;27.75;96950.19;10398313;28;2050;-48
2023/02/09 02:21:10;;;;;;;;;;;;;;;15.14;27.84;96948.63;10403136;28;2027;-53
2023/02/09 02:26:19;;;;;;;;;;;;;;;15.13;28.00;96957.44;10403457;28;1957;-49
2023/02/09 02:31:43;;;;;;;;;;;;;;;15.13;27.83;96960.06;10418483;28;2086;-53
2023/02/09 02:36:51;;;;;;;;;;;;;;;15.10;27.88;96953.47;10412427;28;2092;-49
2023/02/09 02:47:15;;;;;;;;;;;;;;;15.09;27.86;96945.81;10415162;28;1835;-47
2023/02/09 02:52:16;;;;;;;;;;;;;;;15.08;27.83;96944.22;10428056;28;1783;-49
2023/02/09 02:57:20;;;;;;;;;;;;;;;15.07;27.85;96935.59;10416840;28;2083;-51
2023/02/09 03:02:25;;;;;;;;;;;;;;;15.07;27.87;96932.16;10421899;28;1982;-50
2023/02/09 03:07:25;;;;;;;;;;;;;;;15.05;27.63;96940.22;10402060;28;2077;-53
2023/02/09 03:12:42;;;;;;;;;;;;;;;15.03;27.84;96939.63;10422419;28;2074;-50
2023/02/09 03:17:46;;;;;;;;;;;;;;;15.02;27.79;96938.03;10392850;28;1966;-49
2023/02/09 03:22:47;;;;;;;;;;;;;;;15.02;27.74;96937.25;10397800;28;2031;-50
2023/02/09 03:28:19;;;;;;;;;;;;;;;15.00;27.71;96934.03;10424813;28;2048;-50
2023/02/09 03:33:20;;;;;;;;;;;;;;;15.00;27.66;96939.25;10370470;28;2042;-54
2023/02/09 03:38:20;;;;;;;;;;;;;;;14.99;27.62;96941.06;10398958;28;1974;-50
2023/02/09 03:44:25;;;;;;;;;;;;;;;14.98;27.71;96939.44;10415364;28;2044;-52
2023/02/09 03:48:41;;;;;;;;;;;;;;;14.97;27.49;96934.44;10410729;28;2156;-48
2023/02/09 03:53:41;;;;;;;;;;;;;;;14.94;27.73;96938.25;10394419;28;2006;-52
2023/02/09 03:58:42;;;;;;;;;;;;;;;14.93;27.61;96930.66;10421380;28;1939;-52
2023/02/09 04:03:42;;;;;;;;;;;;;;;14.93;27.57;96935.88;10408464;28;1958;-50
2023/02/09 04:08:42;;;;;;;;;;;;;;;14.93;27.63;96941.09;10416148;28;1978;-48
2023/02/09 04:13:42;;;;;;;;;;;;;;;14.90;27.68;96941.53;10412865;28;2022;-50
2023/02/09 04:18:43;;;;;;;;;;;;;;;14.89;27.51;96937.31;10413860;28;2006;-53
2023/02/09 04:23:43;;;;;;;;;;;;;;;14.88;27.51;96943.53;10408117;28;2040;-50
2023/02/09 04:28:44;;;;;;;;;;;;;;;14.88;27.58;96943.53;10401774;28;2057;-50
2023/02/09 04:33:44;;;;;;;;;;;;;;;14.85;27.53;96939.53;10413602;28;2029;-52
2023/02/09 04:38:44;;;;;;;;;;;;;;;14.85;27.54;96939.53;10415522;28;2177;-52
2023/02/09 04:43:45;;;;;;;;;;;;;;;14.85;27.51;96949.16;10420414;28;2100;-50
2023/02/09 04:48:45;;;;;;;;;;;;;;;14.84;27.38;96947.59;10427027;28;1937;-48
2023/02/09 04:53:45;;;;;;;;;;;;;;;14.82;27.47;96939.94;10416707;28;1993;-50
2023/02/09 05:04:04;;;;;;;;;;;;;;;14.79;27.32;96945.59;10417824;28;1961;-50
2023/02/09 05:09:04;;;;;;;;;;;;;;;14.79;27.37;96957.84;10417866;28;2003;-53
2023/02/09 05:14:05;;;;;;;;;;;;;;;14.77;27.30;96957.25;10427088;28;2030;-51
2023/02/09 05:19:05;;;;;;;;;;;;;;;14.76;27.50;96960.84;10436141;28;2075;-49
2023/02/09 05:24:05;;;;;;;;;;;;;;;14.76;27.37;96966.06;10422444;28;2077;-49
2023/02/09 05:29:06;;;;;;;;;;;;;;;14.75;27.53;96967.09;10419536;28;2057;-50
2023/02/09 05:34:06;;;;;;;;;;;;;;;14.74;27.26;96981.94;10416837;28;1989;-51
2023/02/09 05:39:06;;;;;;;;;;;;;;;14.72;27.46;96980.53;10407545;28;2115;-54
2023/02/09 05:44:07;;;;;;;;;;;;;;;14.71;27.50;96989.38;10418110;28;1985;-50
2023/02/09 05:49:07;;;;;;;;;;;;;;;14.70;27.51;96978.13;10415383;28;2143;-53
2023/02/09 05:54:08;;;;;;;;;;;;;;;14.68;27.28;96975.75;10420842;28;1931;-48
2023/02/09 05:59:08;;;;;;;;;;;;;;;14.67;27.42;96975.97;10421654;28;1998;-50
2023/02/09 06:04:08;;;;;;;;;;;;;;;14.66;27.20;96982.16;10415121;28;1993;-52
2023/02/09 06:09:08;;;;;;;;;;;;;;;14.66;27.24;96982.16;10412563;28;2055;-53
2023/02/09 06:14:09;;;;;;;;;;;;;;;14.64;27.20;96985.00;10422853;28;2119;-52
2023/02/09 06:19:11;;;;;;;;;;;;;;;14.62;27.31;96989.63;10414013;28;2057;-51
2023/02/09 06:24:11;;;;;;;;;;;;;;;14.61;27.22;96984.63;10435463;28;1997;-53
2023/02/09 06:29:12;;;;;;;;;;;;;;;14.60;27.19;96993.44;10460663;28;2059;-53
2023/02/09 06:34:12;;;;;;;;;;;;;;;14.59;27.10;97003.06;10450763;28;2532;-49
2023/02/09 06:39:12;;;;;;;;;;;;;;;14.58;27.34;97009.31;10454101;28;2012;-50
2023/02/09 06:44:12;;;;;;;;;;;;;;;14.57;27.14;97020.72;10456375;28;1918;-54
2023/02/09 06:49:13;;;;;;;;;;;;;;;14.56;27.23;97020.94;10458486;28;2114;-51
2023/02/09 06:54:13;;;;;;;;;;;;;;;14.54;27.20;97020.34;10451213;28;2029;-52
2023/02/09 06:59:13;;;;;;;;;;;;;;;14.53;27.28;97022.16;10451062;28;1923;-50
2023/02/09 07:04:14;;;;;;;;;;;;;;;14.52;27.14;97023.16;10464830;28;2020;-52
2023/02/09 07:09:14;;;;;;;;;;;;;;;14.47;27.22;97030.78;10469777;28;1950;-50
2023/02/09 07:14:14;;;;;;;;;;;;;;;14.46;27.24;97029.22;10456649;28;1981;-50
2023/02/09 07:19:14;;;;;;;;;;;;;;;14.47;27.35;97032.59;10456242;28;2103;-50
2023/02/09 07:24:14;;;;;;;;;;;;;;;14.45;27.32;97039.81;10418764;28;2130;-50
2023/02/09 07:29:15;;;;;;;;;;;;;;;14.44;27.38;97035.63;10414508;28;1943;-51
2023/02/09 07:34:15;;;;;;;;;;;;;;;14.43;27.37;97039.22;10398405;28;2019;-51
2023/02/09 07:39:16;;;;;;;;;;;;;;;14.42;27.53;97030.63;10413643;28;2220;-52
2023/02/09 07:44:16;;;;;;;;;;;;;;;14.41;27.52;97039.44;10406391;28;2049;-51
2023/02/09 07:49:16;;;;;;;;;;;;;;;14.38;27.62;97042.47;10409376;28;2627;-49
2023/02/09 07:54:17;;;;;;;;;;;;;;;14.40;27.56;97040.44;10395125;28;2190;-50
2023/02/09 07:59:17;;;;;;;;;;;;;;;14.39;27.66;97045.84;10409806;28;2092;-51
2023/02/09 08:04:17;;;;;;;;;;;;;;;14.38;27.76;97045.06;10412992;28;2010;-50
2023/02/09 08:09:18;;;;;;;;;;;;;;;14.38;27.88;97042.47;10424510;28;2037;-53
2023/02/09 08:14:19;;;;;;;;;;;;;;;14.38;27.82;97041.66;10425476;28;2028;-50
2023/02/09 08:19:20;;;;;;;;;;;;;;;14.38;27.97;97037.25;10402073;28;2118;-52
2023/02/09 08:24:21;;;;;;;;;;;;;;;14.38;28.14;97044.25;10423963;28;2206;-53
2023/02/09 08:29:21;;;;;;;;;;;;;;;14.38;28.14;97039.03;10426409;28;2062;-53
2023/02/09 08:34:21;;;;;;;;;;;;;;;14.37;27.99;97033.03;10424738;28;2097;-49
2023/02/09 08:39:21;;;;;;;;;;;;;;;14.37;28.06;97038.25;10420670;28;1994;-51
2023/02/09 08:44:22;;;;;;;;;;;;;;;14.37;28.05;97040.84;10417457;28;1950;-50
2023/02/09 08:49:22;;;;;;;;;;;;;;;14.37;28.08;97035.63;10433537;28;1962;-52
2023/02/09 08:54:23;;;;;;;;;;;;;;;14.38;28.20;97037.25;10419731;28;2064;-51
2023/02/09 08:59:23;;;;;;;;;;;;;;;14.37;28.16;97043.44;10419340;28;2094;-51
2023/02/09 09:04:23;;;;;;;;;;;;;;;14.37;28.33;97048.66;10422110;28;2124;-51
2023/02/09 09:09:24;;;;;;;;;;;;;;;14.38;28.22;97037.25;10420747;28;1931;-51
2023/02/09 09:14:25;;;;;;;;;;;;;;;14.37;28.30;97038.25;10419282;28;2005;-48
2023/02/09 09:19:25;;;;;;;;;;;;;;;14.38;28.39;97044.25;10406524;28;2001;-51
2023/02/09 09:24:27;;;;;;;;;;;;;;;14.37;28.48;97035.63;10415767;28;2094;-51
2023/02/09 09:29:27;;;;;;;;;;;;;;;14.38;28.27;97037.25;10414958;28;2164;-51
2023/02/09 09:34:28;;;;;;;;;;;;;;;14.38;28.42;97039.84;10413410;28;2219;-48
2023/02/09 09:39:29;;;;;;;;;;;;;;;14.39;28.52;97038.03;10417184;28;2011;-50
2023/02/09 09:44:30;;;;;;;;;;;;;;;14.40;28.31;97050.09;10411757;28;2011;-50
2023/02/09 09:49:31;;;;;;;;;;;;;;;14.40;28.42;97048.28;10397286;28;2136;-55
2023/02/09 09:54:32;;;;;;;;;;;;;;;14.40;28.48;97058.72;10416213;28;1951;-52
2023/02/09 09:59:33;;;;;;;;;;;;;;;14.40;28.64;97060.50;10420644;28;1950;-52
2023/02/09 10:04:34;;;;;;;;;;;;;;;14.41;28.57;97069.94;10415325;28;1993;-51
2023/02/09 10:09:45;;;;;;;;;;;;;;;14.41;28.50;97068.13;10412694;28;2019;-51
2023/02/09 10:14:45;;;;;;;;;;;;;;;14.41;28.37;97069.94;10417095;28;2023;-50
2023/02/09 10:19:58;;;;;;;;;;;;;;;14.41;28.64;97060.31;10423419;28;1972;-50
2023/02/09 10:25:01;;;;;;;;;;;;;;;14.42;28.55;97063.72;10410805;28;2114;-49
2023/02/09 10:30:17;;;;;;;;;;;;;;;14.41;28.44;97052.47;10423763;28;2029;-51
2023/02/09 10:35:22;;;;;;;;;;;;;;;14.42;28.51;97045.47;10412471;28;2017;-48
2023/02/09 10:40:24;;;;;;;;;;;;;;;14.43;28.54;97053.06;10412102;28;1967;-51
2023/02/09 10:45:25;;;;;;;;;;;;;;;14.43;28.55;97034.81;10409931;28;1962;-53
2023/02/09 10:50:25;;;;;;;;;;;;;;;14.44;28.71;97035.63;10412356;28;2030;-50
2023/02/09 10:55:32;;;;;;;;;;;;;;;14.45;28.72;97037.22;10415993;28;1994;-51
2023/02/09 11:00:44;;;;;;;;;;;;;;;14.45;28.88;97027.59;10426776;28;2049;-51
2023/02/09 11:05:46;;;;;;;;;;;;;;;14.46;28.80;97025.78;10401921;28;2021;-47
2023/02/09 11:10:54;;;;;;;;;;;;;;;14.44;28.89;97015.56;10397433;28;2101;-49
2023/02/09 11:16:05;;;;;;;;;;;;;;;14.47;28.85;97019.53;10422237;28;2093;-52
2023/02/09 11:21:09;;;;;;;;;;;;;;;14.48;28.94;97019.38;10415846;28;1962;-53
2023/02/09 11:26:16;;;;;;;;;;;;;;;14.49;29.03;97017.53;10408313;28;2069;-49
2023/02/09 11:31:16;;;;;;;;;;;;;;;14.49;28.99;97007.91;10411425;28;2005;-49
2023/02/09 11:36:21;;;;;;;;;;;;;;;14.50;29.06;97006.91;10413388;28;1972;-47
2023/02/09 11:46:47;;;;;;;;;;;;;;;14.52;29.04;96999.69;10411910;28;1978;-51
2023/02/09 11:51:47;;;;;;;;;;;;;;;14.53;29.04;96992.63;10395221;28;1970;-51
2023/02/09 11:56:51;;;;;;;;;;;;;;;14.54;28.99;96999.47;10409528;28;2037;-51
2023/02/09 12:02:30;;;;;;;;;;;;;;;14.54;29.11;96995.06;10420035;28;1994;-51
2023/02/09 12:07:44;;;;;;;;;;;;;;;14.55;29.31;96981.00;10308443;28;2154;-49
2023/02/09 12:12:54;;;;;;;;;;;;;;;14.56;29.28;96971.38;10389915;28;2119;-49
2023/02/09 12:17:57;;;;;;;;;;;;;;;14.57;29.13;96968.53;10413413;28;2077;-47
2023/02/09 12:23:00;;;;;;;;;;;;;;;14.58;29.21;96966.75;10416015;28;1942;-50
2023/02/09 12:28:03;;;;;;;;;;;;;;;14.58;29.11;96957.13;10415088;28;2133;-48
2023/02/09 12:33:30;;;;;;;;;;;;;;;14.61;28.98;96950.69;10417581;28;2131;-51
2023/02/09 12:38:48;;;;;;;;;;;;;;;14.61;29.01;96946.25;10413052;28;1990;-52
2023/02/09 12:43:49;;;;;;;;;;;;;;;14.63;29.18;96957.28;10427197;28;1950;-54
2023/02/09 12:49:05;;;;;;;;;;;;;;;14.65;29.12;96938.84;10427415;28;2101;-51
2023/02/09 12:54:23;;;;;;;;;;;;;;;14.65;29.09;96937.00;10412010;28;1974;-51
2023/02/09 12:59:24;;;;;;;;;;;;;;;14.67;29.06;96939.44;10409349;28;2010;-53
2023/02/09 13:04:24;;;;;;;;;;;;;;;14.65;29.12;96931.00;10414660;28;1971;-48
2023/02/09 13:09:26;;;;;;;;;;;;;;;14.67;29.32;96936.81;10420871;28;2207;-49
2023/02/09 13:14:26;;;;;;;;;;;;;;;14.68;29.41;96939.22;10404961;28;2180;-49
2023/02/09 13:19:39;;;;;;;;;;;;;;;14.70;29.44;96939.00;10406239;28;2107;-49
2023/02/09 13:24:58;;;;;;;;;;;;;;;14.75;29.21;96943.59;10450905;28;1926;-46
2023/02/09 13:29:58;;;;;;;;;;;;;;;14.83;29.43;96935.53;10460004;28;1950;-47
2023/02/09 13:35:11;;;;;;;;;;;;;;;14.87;29.60;96936.72;10464609;28;2142;-48
2023/02/09 13:40:23;;;;;;;;;;;;;;;14.95;29.43;96939.06;10457310;28;1985;-49
2023/02/09 13:45:25;;;;;;;;;;;;;;;15.05;29.52;96939.41;10462125;28;2163;-49
2023/02/09 13:50:27;;;;;;;;;;;;;;;15.17;28.91;96942.97;10465988;28;1943;-49
2023/02/09 13:55:27;;;;;;;;;;;;;;;15.26;29.05;96942.50;10459327;28;2115;-49
2023/02/09 14:00:28;;;;;;;;;;;;;;;15.32;28.79;96946.88;10452968;28;2136;-48
2023/02/09 14:05:47;;;;;;;;;;;;;;;15.33;28.59;96951.09;10452255;28;2088;-50
2023/02/09 14:10:53;;;;;;;;;;;;;;;15.36;28.63;96942.84;10460270;28;2013;-47
2023/02/09 14:16:06;;;;;;;;;;;;;;;15.38;28.57;96945.25;10454341;28;2015;-52
2023/02/09 14:21:09;;;;;;;;;;;;;;;15.39;28.51;96945.00;10457173;28;2598;-51
2023/02/09 14:26:12;;;;;;;;;;;;;;;15.35;28.61;96943.84;10415459;28;1981;-51
2023/02/09 14:31:22;;;;;;;;;;;;;;;15.28;28.62;96942.28;10414528;28;2057;-52
2023/02/09 14:36:33;;;;;;;;;;;;;;;15.18;28.95;96944.56;10420759;28;1981;-51
2023/02/09 14:41:35;;;;;;;;;;;;;;;15.09;29.28;96948.44;10415634;28;2094;-47
2023/02/09 14:46:54;;;;;;;;;;;;;;;15.02;29.45;96945.84;10415635;28;1910;-48
2023/02/09 14:52:05;;;;;;;;;;;;;;;14.98;29.58;96951.72;10422358;28;1998;-50
2023/02/09 14:57:08;;;;;;;;;;;;;;;14.93;29.42;96951.53;10407263;28;2156;-48
2023/02/09 15:02:19;;;;;;;;;;;;;;;14.88;29.50;96954.75;10394484;28;2151;-47
2023/02/09 15:07:25;;;;;;;;;;;;;;;14.83;29.55;96948.56;10413831;28;2030;-49
2023/02/09 15:12:26;;;;;;;;;;;;;;;14.81;29.58;96958.44;10395850;28;1954;-49
2023/02/09 15:17:27;;;;;;;;;;;;;;;14.77;29.63;96962.47;10404018;28;1981;-51
2023/02/09 15:22:27;;;;;;;;;;;;;;;14.73;29.62;96961.28;10420113;28;1967;-51
2023/02/09 15:27:30;;;;;;;;;;;;;;;14.70;29.74;96965.09;10406986;28;2010;-50
2023/02/09 15:32:31;;;;;;;;;;;;;;;14.65;29.71;96963.09;10395662;28;2045;-50
2023/02/09 15:37:32;;;;;;;;;;;;;;;14.63;29.57;96972.94;10414002;28;2089;-48
2023/02/09 15:47:55;;;;;;;;;;;;;;;14.57;29.81;96971.16;10412095;28;1981;-49
2023/02/09 15:52:56;;;;;;;;;;;;;;;14.55;29.62;96986.22;10409316;28;1970;-46
2023/02/09 15:57:57;;;;;;;;;;;;;;;14.53;29.61;96988.22;10410683;28;2099;-52
2023/02/09 16:02:58;;;;;;;;;;;;;;;14.53;29.69;96992.63;10417548;28;2006;-49
2023/02/09 16:07:58;;;;;;;;;;;;;;;14.50;29.64;96996.47;10414989;28;2037;-49
2023/02/09 16:12:58;;;;;;;;;;;;;;;14.48;29.62;97008.94;10413814;28;2045;-47
2023/02/09 16:17:58;;;;;;;;;;;;;;;14.46;29.70;97012.75;10422410;28;2101;-47
2023/02/09 16:23:00;;;;;;;;;;;;;;;14.46;29.52;97016.16;10405644;28;2020;-51
2023/02/09 16:28:00;;;;;;;;;;;;;;;14.44;29.60;97025.19;10416845;28;1961;-48
2023/02/09 16:33:00;;;;;;;;;;;;;;;14.41;29.56;97015.16;10419275;28;1955;-51
2023/02/09 16:38:00;;;;;;;;;;;;;;;14.40;29.65;97040.44;10418097;28;2039;-52
2023/02/09 16:43:01;;;;;;;;;;;;;;;14.38;29.54;97034.63;10423174;28;2032;-48
2023/02/09 16:48:01;;;;;;;;;;;;;;;14.38;29.47;97042.47;10415346;28;2092;-50
2023/02/09 16:53:02;;;;;;;;;;;;;;;14.37;29.58;97058.28;10418635;28;1978;-53
2023/02/09 16:58:03;;;;;;;;;;;;;;;14.36;29.52;97054.88;10419308;28;2046;-50
2023/02/09 17:03:06;;;;;;;;;;;;;;;14.34;29.60;97062.09;10420181;28;2067;-50
2023/02/09 17:08:10;;;;;;;;;;;;;;;14.33;29.62;97070.94;10415523;28;1988;-53
2023/02/09 17:13:10;;;;;;;;;;;;;;;14.31;29.37;97078.19;10412275;28;1993;-52
2023/02/09 17:18:13;;;;;;;;;;;;;;;14.31;29.76;97077.38;10419032;28;2061;-51
2023/02/09 17:23:14;;;;;;;;;;;;;;;14.29;29.43;97085.41;10414779;28;2025;-51
2023/02/09 17:28:14;;;;;;;;;;;;;;;14.28;29.45;97088.19;10407666;28;2097;-53
2023/02/09 17:33:18;;;;;;;;;;;;;;;14.26;29.59;97090.97;10421702;28;2058;-54
2023/02/09 17:38:25;;;;;;;;;;;;;;;14.26;29.43;97096.19;10421412;28;2037;-49
2023/02/09 17:43:26;;;;;;;;;;;;;;;14.27;29.53;97097.00;10403704;28;2174;-51
2023/02/09 17:48:26;;;;;;;;;;;;;;;14.24;29.50;97100.03;10417398;28;2175;-51
2023/02/09 17:53:27;;;;;;;;;;;;;;;14.24;29.33;97103.41;10416475;28;2001;-52
2023/02/09 17:58:27;;;;;;;;;;;;;;;14.22;29.57;97109.84;10397683;28;2046;-51
2023/02/09 18:03:27;;;;;;;;;;;;;;;14.22;29.40;97104.63;10416143;28;2037;-52
2023/02/09 18:08:29;;;;;;;;;;;;;;;14.21;29.37;97114.25;10416730;28;2138;-49
2023/02/09 18:13:30;;;;;;;;;;;;;;;14.20;29.51;97112.63;10417204;28;2167;-49
2023/02/09 18:18:30;;;;;;;;;;;;;;;14.20;29.42;97123.06;10420095;28;2019;-50
2023/02/09 18:23:30;;;;;;;;;;;;;;;14.19;29.33;97126.69;10416737;28;2404;-51
2023/02/09 18:28:30;;;;;;;;;;;;;;;14.18;29.39;97126.91;10411378;28;2065;-51
2023/02/09 18:33:31;;;;;;;;;;;;;;;14.17;29.29;97130.50;10410306;28;1933;-52
2023/02/09 18:38:31;;;;;;;;;;;;;;;14.14;29.16;97123.06;10415069;28;1970;-51
2023/02/09 18:43:31;;;;;;;;;;;;;;;14.15;29.38;97129.91;10426143;28;2015;-53
2023/02/09 18:48:31;;;;;;;;;;;;;;;14.15;29.49;97133.31;10414075;28;2105;-51
2023/02/09 18:53:32;;;;;;;;;;;;;;;14.14;29.46;97131.69;10415124;28;2032;-49
2023/02/09 18:58:32;;;;;;;;;;;;;;;14.12;29.46;97138.91;10421165;28;2084;-52
2023/02/09 19:03:32;;;;;;;;;;;;;;;14.12;29.40;97141.53;10406067;28;2093;-49
2023/02/09 19:08:33;;;;;;;;;;;;;;;14.12;29.51;97146.75;10412631;28;2313;-53
2023/02/09 19:13:34;;;;;;;;;;;;;;;14.11;29.36;97150.34;10415249;28;2019;-52
2023/02/09 19:18:34;;;;;;;;;;;;;;;14.09;29.40;97149.75;10409860;28;1918;-52
2023/02/09 19:23:34;;;;;;;;;;;;;;;14.09;29.46;97152.38;10422244;28;2146;-51
2023/02/09 19:28:35;;;;;;;;;;;;;;;14.10;29.45;97151.34;10419744;28;2031;-51
2023/02/09 19:33:35;;;;;;;;;;;;;;;14.09;29.29;97156.75;10409845;28;2052;-50
2023/02/09 19:38:35;;;;;;;;;;;;;;;14.07;29.47;97148.34;10418974;28;2006;-50
2023/02/09 19:43:36;;;;;;;;;;;;;;;14.08;29.29;97160.38;10419144;28;2058;-51
2023/02/09 19:48:38;;;;;;;;;;;;;;;14.07;29.37;97161.38;10399682;28;2100;-51
2023/02/09 19:53:39;;;;;;;;;;;;;;;14.05;29.46;97153.75;10421783;28;2030;-52
2023/02/09 19:58:39;;;;;;;;;;;;;;;14.05;29.29;97150.34;10415853;28;2096;-51
2023/02/09 20:03:39;;;;;;;;;;;;;;;14.04;29.35;97154.75;10423745;28;2005;-52
2023/02/09 20:08:39;;;;;;;;;;;;;;;14.05;29.42;97156.38;10411702;28;2031;-52
2023/02/09 20:13:40;;;;;;;;;;;;;;;14.04;29.36;97165.19;10422929;28;2133;-50
2023/02/09 20:18:40;;;;;;;;;;;;;;;14.04;29.53;97169.59;10418961;28;2098;-53
2023/02/09 20:23:40;;;;;;;;;;;;;;;14.02;29.27;97167.19;10415027;28;2013;-51
2023/02/09 20:28:41;;;;;;;;;;;;;;;14.01;29.29;97164.78;10416185;28;2002;-52
2023/02/09 20:33:42;;;;;;;;;;;;;;;13.99;29.30;97175.41;10419503;28;2066;-51
2023/02/09 20:38:42;;;;;;;;;;;;;;;13.99;29.40;97161.56;10419039;28;1977;-53
2023/02/09 20:49:01;;;;;;;;;;;;;;;13.97;29.07;97169.59;10426447;28;1984;-50
2023/02/09 20:54:01;;;;;;;;;;;;;;;13.98;29.14;97175.59;10409782;28;2079;-52
2023/02/09 20:59:02;;;;;;;;;;;;;;;13.95;29.25;97182.00;10415205;28;2003;-49
2023/02/09 21:04:03;;;;;;;;;;;;;;;13.96;29.18;97188.81;10407644;28;2143;-50
2023/02/09 21:09:04;;;;;;;;;;;;;;;13.95;29.31;97197.63;10408227;28;2069;-49
2023/02/09 21:14:04;;;;;;;;;;;;;;;13.95;29.21;97194.25;10412580;28;2118;-51
2023/02/09 21:19:04;;;;;;;;;;;;;;;13.94;29.29;97198.66;10424419;28;2122;-53
2023/02/09 21:24:05;;;;;;;;;;;;;;;13.95;29.09;97202.84;10419212;28;2087;-54
2023/02/09 21:29:05;;;;;;;;;;;;;;;13.94;29.39;97200.44;10423572;28;2059;-52
2023/02/09 21:34:05;;;;;;;;;;;;;;;13.93;29.37;97211.88;10411165;28;2010;-53
2023/02/09 21:39:06;;;;;;;;;;;;;;;13.92;29.11;97218.91;10417622;28;2045;-50
2023/02/09 21:44:06;;;;;;;;;;;;;;;13.91;29.18;97217.28;10417953;28;2030;-52
2023/02/09 21:49:06;;;;;;;;;;;;;;;13.90;29.12;97220.91;10414742;28;2401;-49
2023/02/09 21:54:07;;;;;;;;;;;;;;;13.90;29.38;97220.91;10416505;28;2027;-53
2023/02/09 21:59:07;;;;;;;;;;;;;;;13.91;29.19;97232.91;10429363;28;2092;-50
2023/02/09 22:04:07;;;;;;;;;;;;;;;13.90;29.07;97233.94;10420641;28;2073;-49
2023/02/09 22:09:07;;;;;;;;;;;;;;;13.88;29.22;97236.75;10431490;28;2407;-50
2023/02/09 22:14:08;;;;;;;;;;;;;;;13.88;29.21;97238.53;10418078;28;2019;-53
2023/02/09 22:19:08;;;;;;;;;;;;;;;13.86;29.09;97241.34;10429608;28;2058;-50
2023/02/09 22:24:10;;;;;;;;;;;;;;;13.87;29.03;97247.34;10416705;28;1989;-52
2023/02/09 22:29:11;;;;;;;;;;;;;;;13.85;29.23;97238.91;10416159;28;2373;-52
2023/02/09 22:34:11;;;;;;;;;;;;;;;13.85;29.27;97250.16;10412425;28;2067;-53
2023/02/09 22:39:12;;;;;;;;;;;;;;;13.85;29.19;97241.50;10396122;28;2069;-49
2023/02/09 22:44:12;;;;;;;;;;;;;;;13.85;29.11;97244.13;10417061;28;2005;-50
2023/02/09 22:49:19;;;;;;;;;;;;;;;13.84;29.30;97245.13;10384678;28;2433;-50
2023/02/09 22:54:19;;;;;;;;;;;;;;;13.83;29.06;97251.31;10421748;28;1995;-49
2023/02/09 22:59:19;;;;;;;;;;;;;;;13.83;29.09;97248.72;10412326;28;2031;-50
2023/02/09 23:04:20;;;;;;;;;;;;;;;13.81;29.18;97254.13;10410739;28;2077;-49
2023/02/09 23:09:20;;;;;;;;;;;;;;;13.80;28.98;97251.75;10416522;28;2043;-50
2023/02/09 23:14:20;;;;;;;;;;;;;;;13.80;29.25;97244.72;10436465;28;2031;-50
2023/02/09 23:19:20;;;;;;;;;;;;;;;13.81;29.04;97227.25;10410609;28;2064;-51
2023/02/09 23:24:21;;;;;;;;;;;;;;;13.79;28.92;97230.06;10434924;28;2070;-49
2023/02/09 23:29:21;;;;;;;;;;;;;;;13.79;29.01;97244.91;10453534;28;1945;-51
2023/02/09 23:34:21;;;;;;;;;;;;;;;13.78;28.94;97244.13;10453975;28;1998;-50
2023/02/09 23:39:22;;;;;;;;;;;;;;;13.79;28.95;97244.91;10454844;28;2107;-54
2023/02/09 23:44:22;;;;;;;;;;;;;;;13.77;29.12;97246.91;10457125;28;2088;-51
2023/02/09 23:49:22;;;;;;;;;;;;;;;13.77;28.89;97252.09;10462320;28;1982;-49
2023/02/09 23:54:22;;;;;;;;;;;;;;;13.75;29.09;97261.94;10453875;28;1954;-52
2023/02/09 23:59:23;;;;;;;;;;;;;;;13.75;29.08;97273.16;10457871;28;2239;-53
